sensor_id;sensor_type;location;lat;lon;timestamp;P1;durP1;ratioP1;P2;durP2;ratioP2
71715;SDS011;59568;52.128;5.434;2024-03-17T00:00:04;6.38;;;1.88;;
71715;SDS011;59568;52.128;5.434;2024-03-17T00:02:30;4.93;;;1.80;;
71715;SDS011;59568;52.128;5.434;2024-03-17T00:04:56;5.07;;;1.65;;
71715;SDS011;59568;52.128;5.434;2024-03-17T00:07:22;4.85;;;2.10;;
71715;SDS011;59568;52.128;5.434;2024-03-17T00:09:48;7.57;;;2.37;;
71715;SDS011;59568;52.128;5.434;2024-03-17T00:12:14;6.53;;;2.50;;
71715;SDS011;59568;52.128;5.434;2024-03-17T00:14:39;4.13;;;2.30;;
71715;SDS011;59568;52.128;5.434;2024-03-17T00:17:08;13.55;;;3.38;;
71715;SDS011;59568;52.128;5.434;2024-03-17T00:19:33;7.13;;;3.15;;
71715;SDS011;59568;52.128;5.434;2024-03-17T00:22:00;7.68;;;2.63;;
71715;SDS011;59568;52.128;5.434;2024-03-17T00:24:25;5.37;;;2.53;;
71715;SDS011;59568;52.128;5.434;2024-03-17T00:26:51;6.05;;;2.67;;
71715;SDS011;59568;52.128;5.434;2024-03-17T00:29:17;6.45;;;3.20;;
71715;SDS011;59568;52.128;5.434;2024-03-17T00:31:43;5.57;;;3.33;;
71715;SDS011;59568;52.128;5.434;2024-03-17T00:34:09;7.47;;;4.18;;
71715;SDS011;59568;52.128;5.434;2024-03-17T00:36:35;6.13;;;3.47;;
71715;SDS011;59568;52.128;5.434;2024-03-17T00:39:02;8.52;;;3.38;;
71715;SDS011;59568;52.128;5.434;2024-03-17T00:41:28;7.50;;;3.05;;
71715;SDS011;59568;52.128;5.434;2024-03-17T00:43:54;6.63;;;3.35;;
71715;SDS011;59568;52.128;5.434;2024-03-17T00:46:20;7.17;;;3.60;;
71715;SDS011;59568;52.128;5.434;2024-03-17T00:48:50;7.20;;;3.47;;
71715;SDS011;59568;52.128;5.434;2024-03-17T00:51:16;6.15;;;3.40;;
71715;SDS011;59568;52.128;5.434;2024-03-17T00:53:42;8.48;;;3.75;;
71715;SDS011;59568;52.128;5.434;2024-03-17T00:56:08;10.00;;;3.90;;
71715;SDS011;59568;52.128;5.434;2024-03-17T00:58:34;6.55;;;3.72;;
71715;SDS011;59568;52.128;5.434;2024-03-17T01:01:00;6.90;;;3.60;;
71715;SDS011;59568;52.128;5.434;2024-03-17T01:03:26;6.63;;;3.47;;
71715;SDS011;59568;52.128;5.434;2024-03-17T01:05:55;8.10;;;3.60;;
71715;SDS011;59568;52.128;5.434;2024-03-17T01:08:21;8.85;;;3.35;;
71715;SDS011;59568;52.128;5.434;2024-03-17T01:10:47;6.85;;;3.75;;
71715;SDS011;59568;52.128;5.434;2024-03-17T01:13:16;7.13;;;4.10;;
71715;SDS011;59568;52.128;5.434;2024-03-17T01:15:43;5.25;;;3.35;;
71715;SDS011;59568;52.128;5.434;2024-03-17T01:18:08;12.85;;;4.38;;
71715;SDS011;59568;52.128;5.434;2024-03-17T01:20:35;6.85;;;3.95;;
71715;SDS011;59568;52.128;5.434;2024-03-17T01:23:03;6.70;;;3.80;;
71715;SDS011;59568;52.128;5.434;2024-03-17T01:25:29;5.82;;;3.60;;
71715;SDS011;59568;52.128;5.434;2024-03-17T01:27:55;6.80;;;3.65;;
71715;SDS011;59568;52.128;5.434;2024-03-17T01:30:22;10.35;;;3.65;;
71715;SDS011;59568;52.128;5.434;2024-03-17T01:32:50;6.72;;;3.92;;
71715;SDS011;59568;52.128;5.434;2024-03-17T01:35:16;4.57;;;3.20;;
71715;SDS011;59568;52.128;5.434;2024-03-17T01:37:42;8.57;;;3.65;;
71715;SDS011;59568;52.128;5.434;2024-03-17T01:40:09;5.93;;;3.45;;
71715;SDS011;59568;52.128;5.434;2024-03-17T01:42:39;6.65;;;3.80;;
71715;SDS011;59568;52.128;5.434;2024-03-17T01:47:41;6.33;;;2.93;;
71715;SDS011;59568;52.128;5.434;2024-03-17T01:50:07;7.35;;;3.72;;
71715;SDS011;59568;52.128;5.434;2024-03-17T01:52:34;8.48;;;4.22;;
71715;SDS011;59568;52.128;5.434;2024-03-17T01:55:02;8.07;;;3.95;;
71715;SDS011;59568;52.128;5.434;2024-03-17T01:57:29;5.32;;;3.70;;
71715;SDS011;59568;52.128;5.434;2024-03-17T01:59:55;8.93;;;3.70;;
71715;SDS011;59568;52.128;5.434;2024-03-17T02:02:22;7.38;;;3.40;;
71715;SDS011;59568;52.128;5.434;2024-03-17T02:04:48;5.28;;;3.45;;
71715;SDS011;59568;52.128;5.434;2024-03-17T02:07:14;6.93;;;4.25;;
71715;SDS011;59568;52.128;5.434;2024-03-17T02:09:41;9.30;;;4.00;;
71715;SDS011;59568;52.128;5.434;2024-03-17T02:12:08;9.52;;;4.10;;
71715;SDS011;59568;52.128;5.434;2024-03-17T02:14:36;6.82;;;4.15;;
71715;SDS011;59568;52.128;5.434;2024-03-17T02:17:02;6.88;;;4.03;;
71715;SDS011;59568;52.128;5.434;2024-03-17T02:19:29;7.90;;;4.33;;
71715;SDS011;59568;52.128;5.434;2024-03-17T02:21:55;7.60;;;4.75;;
71715;SDS011;59568;52.128;5.434;2024-03-17T02:24:21;14.85;;;5.57;;
71715;SDS011;59568;52.128;5.434;2024-03-17T02:26:47;15.18;;;5.15;;
71715;SDS011;59568;52.128;5.434;2024-03-17T02:29:13;10.88;;;5.03;;
71715;SDS011;59568;52.128;5.434;2024-03-17T02:31:39;8.35;;;4.95;;
71715;SDS011;59568;52.128;5.434;2024-03-17T02:34:05;9.10;;;5.15;;
71715;SDS011;59568;52.128;5.434;2024-03-17T02:36:31;10.77;;;5.22;;
71715;SDS011;59568;52.128;5.434;2024-03-17T02:38:57;12.18;;;5.15;;
71715;SDS011;59568;52.128;5.434;2024-03-17T02:41:44;12.48;;;5.65;;
71715;SDS011;59568;52.128;5.434;2024-03-17T02:44:11;11.20;;;5.17;;
71715;SDS011;59568;52.128;5.434;2024-03-17T02:46:37;9.20;;;4.97;;
71715;SDS011;59568;52.128;5.434;2024-03-17T02:49:03;15.95;;;5.07;;
71715;SDS011;59568;52.128;5.434;2024-03-17T02:51:29;10.93;;;5.70;;
71715;SDS011;59568;52.128;5.434;2024-03-17T02:53:55;10.40;;;5.10;;
71715;SDS011;59568;52.128;5.434;2024-03-17T02:56:21;10.40;;;5.43;;
71715;SDS011;59568;52.128;5.434;2024-03-17T02:58:47;8.90;;;5.18;;
71715;SDS011;59568;52.128;5.434;2024-03-17T03:01:14;8.57;;;4.67;;
71715;SDS011;59568;52.128;5.434;2024-03-17T03:03:40;11.75;;;5.75;;
71715;SDS011;59568;52.128;5.434;2024-03-17T03:06:06;8.50;;;5.35;;
71715;SDS011;59568;52.128;5.434;2024-03-17T03:08:37;11.77;;;5.55;;
71715;SDS011;59568;52.128;5.434;2024-03-17T03:11:09;9.73;;;5.20;;
71715;SDS011;59568;52.128;5.434;2024-03-17T03:13:37;10.97;;;6.33;;
71715;SDS011;59568;52.128;5.434;2024-03-17T03:16:08;7.95;;;5.03;;
71715;SDS011;59568;52.128;5.434;2024-03-17T03:18:35;9.25;;;4.90;;
71715;SDS011;59568;52.128;5.434;2024-03-17T03:21:02;9.93;;;5.55;;
71715;SDS011;59568;52.128;5.434;2024-03-17T03:23:28;9.30;;;4.95;;
71715;SDS011;59568;52.128;5.434;2024-03-17T03:25:55;9.87;;;5.00;;
71715;SDS011;59568;52.128;5.434;2024-03-17T03:28:25;8.38;;;5.35;;
71715;SDS011;59568;52.128;5.434;2024-03-17T03:30:52;8.27;;;4.93;;
71715;SDS011;59568;52.128;5.434;2024-03-17T03:33:18;9.00;;;5.38;;
71715;SDS011;59568;52.128;5.434;2024-03-17T03:35:45;12.90;;;4.95;;
71715;SDS011;59568;52.128;5.434;2024-03-17T03:38:14;12.07;;;5.30;;
71715;SDS011;59568;52.128;5.434;2024-03-17T03:40:40;10.30;;;4.90;;
71715;SDS011;59568;52.128;5.434;2024-03-17T03:43:08;11.80;;;5.55;;
71715;SDS011;59568;52.128;5.434;2024-03-17T03:45:34;11.40;;;5.65;;
71715;SDS011;59568;52.128;5.434;2024-03-17T03:48:01;7.82;;;4.65;;
71715;SDS011;59568;52.128;5.434;2024-03-17T03:50:28;8.37;;;4.57;;
71715;SDS011;59568;52.128;5.434;2024-03-17T03:52:54;9.25;;;4.97;;
71715;SDS011;59568;52.128;5.434;2024-03-17T03:55:21;9.38;;;5.45;;
71715;SDS011;59568;52.128;5.434;2024-03-17T03:57:47;8.40;;;4.65;;
71715;SDS011;59568;52.128;5.434;2024-03-17T04:00:14;10.83;;;5.27;;
71715;SDS011;59568;52.128;5.434;2024-03-17T04:02:50;10.60;;;5.47;;
71715;SDS011;59568;52.128;5.434;2024-03-17T04:05:17;8.13;;;4.78;;
71715;SDS011;59568;52.128;5.434;2024-03-17T04:07:45;8.95;;;4.40;;
71715;SDS011;59568;52.128;5.434;2024-03-17T04:10:12;8.98;;;5.10;;
71715;SDS011;59568;52.128;5.434;2024-03-17T04:12:39;11.83;;;4.80;;
71715;SDS011;59568;52.128;5.434;2024-03-17T04:15:05;10.25;;;5.05;;
71715;SDS011;59568;52.128;5.434;2024-03-17T04:17:32;7.72;;;5.05;;
71715;SDS011;59568;52.128;5.434;2024-03-17T04:19:58;10.20;;;5.65;;
71715;SDS011;59568;52.128;5.434;2024-03-17T04:22:25;10.43;;;5.13;;
71715;SDS011;59568;52.128;5.434;2024-03-17T04:24:52;11.57;;;5.00;;
71715;SDS011;59568;52.128;5.434;2024-03-17T04:27:22;7.63;;;5.07;;
71715;SDS011;59568;52.128;5.434;2024-03-17T04:29:49;9.85;;;4.78;;
71715;SDS011;59568;52.128;5.434;2024-03-17T04:32:19;7.03;;;4.22;;
71715;SDS011;59568;52.128;5.434;2024-03-17T04:34:46;10.43;;;4.78;;
71715;SDS011;59568;52.128;5.434;2024-03-17T04:37:13;8.07;;;4.63;;
71715;SDS011;59568;52.128;5.434;2024-03-17T04:39:39;12.77;;;5.13;;
71715;SDS011;59568;52.128;5.434;2024-03-17T04:42:17;11.60;;;5.07;;
71715;SDS011;59568;52.128;5.434;2024-03-17T04:44:44;8.48;;;5.00;;
71715;SDS011;59568;52.128;5.434;2024-03-17T04:47:11;7.85;;;5.18;;
71715;SDS011;59568;52.128;5.434;2024-03-17T04:49:42;9.67;;;5.10;;
71715;SDS011;59568;52.128;5.434;2024-03-17T04:52:09;11.23;;;5.28;;
71715;SDS011;59568;52.128;5.434;2024-03-17T04:54:37;10.70;;;4.72;;
71715;SDS011;59568;52.128;5.434;2024-03-17T04:57:03;8.60;;;4.72;;
71715;SDS011;59568;52.128;5.434;2024-03-17T04:59:29;9.57;;;5.27;;
71715;SDS011;59568;52.128;5.434;2024-03-17T05:01:55;9.38;;;5.25;;
71715;SDS011;59568;52.128;5.434;2024-03-17T05:04:21;10.43;;;5.97;;
71715;SDS011;59568;52.128;5.434;2024-03-17T05:06:50;8.80;;;5.50;;
71715;SDS011;59568;52.128;5.434;2024-03-17T05:09:16;9.18;;;5.65;;
71715;SDS011;59568;52.128;5.434;2024-03-17T05:11:43;11.60;;;5.85;;
71715;SDS011;59568;52.128;5.434;2024-03-17T05:14:09;9.85;;;5.45;;
71715;SDS011;59568;52.128;5.434;2024-03-17T05:16:35;11.13;;;5.70;;
71715;SDS011;59568;52.128;5.434;2024-03-17T05:19:01;8.43;;;5.57;;
71715;SDS011;59568;52.128;5.434;2024-03-17T05:21:27;11.75;;;5.53;;
71715;SDS011;59568;52.128;5.434;2024-03-17T05:23:56;11.93;;;5.55;;
71715;SDS011;59568;52.128;5.434;2024-03-17T05:26:25;8.30;;;5.10;;
71715;SDS011;59568;52.128;5.434;2024-03-17T05:28:52;9.97;;;5.47;;
71715;SDS011;59568;52.128;5.434;2024-03-17T05:31:19;10.55;;;5.70;;
71715;SDS011;59568;52.128;5.434;2024-03-17T05:33:47;11.25;;;6.30;;
71715;SDS011;59568;52.128;5.434;2024-03-17T05:36:13;11.85;;;6.45;;
71715;SDS011;59568;52.128;5.434;2024-03-17T05:38:39;9.82;;;5.60;;
71715;SDS011;59568;52.128;5.434;2024-03-17T05:41:05;10.53;;;6.33;;
71715;SDS011;59568;52.128;5.434;2024-03-17T05:43:33;10.73;;;6.22;;
71715;SDS011;59568;52.128;5.434;2024-03-17T05:46:12;11.00;;;6.43;;
71715;SDS011;59568;52.128;5.434;2024-03-17T05:48:41;13.00;;;6.68;;
71715;SDS011;59568;52.128;5.434;2024-03-17T05:51:10;11.43;;;6.03;;
71715;SDS011;59568;52.128;5.434;2024-03-17T05:53:38;10.65;;;6.00;;
71715;SDS011;59568;52.128;5.434;2024-03-17T05:56:05;14.27;;;5.75;;
71715;SDS011;59568;52.128;5.434;2024-03-17T05:58:33;11.30;;;5.95;;
71715;SDS011;59568;52.128;5.434;2024-03-17T06:01:03;10.57;;;6.17;;
71715;SDS011;59568;52.128;5.434;2024-03-17T06:03:29;10.63;;;5.97;;
71715;SDS011;59568;52.128;5.434;2024-03-17T06:05:58;9.70;;;5.93;;
71715;SDS011;59568;52.128;5.434;2024-03-17T06:08:24;10.93;;;6.80;;
71715;SDS011;59568;52.128;5.434;2024-03-17T06:10:50;10.48;;;5.90;;
71715;SDS011;59568;52.128;5.434;2024-03-17T06:13:16;10.60;;;5.97;;
71715;SDS011;59568;52.128;5.434;2024-03-17T06:15:42;10.50;;;5.85;;
71715;SDS011;59568;52.128;5.434;2024-03-17T06:18:11;10.40;;;5.85;;
71715;SDS011;59568;52.128;5.434;2024-03-17T06:20:40;10.68;;;5.38;;
71715;SDS011;59568;52.128;5.434;2024-03-17T06:23:12;11.25;;;5.65;;
71715;SDS011;59568;52.128;5.434;2024-03-17T06:25:42;8.07;;;5.10;;
71715;SDS011;59568;52.128;5.434;2024-03-17T06:28:09;11.13;;;5.50;;
71715;SDS011;59568;52.128;5.434;2024-03-17T06:30:39;11.55;;;6.70;;
71715;SDS011;59568;52.128;5.434;2024-03-17T06:33:19;11.55;;;5.55;;
71715;SDS011;59568;52.128;5.434;2024-03-17T06:35:46;13.50;;;6.50;;
71715;SDS011;59568;52.128;5.434;2024-03-17T06:38:12;11.57;;;5.93;;
71715;SDS011;59568;52.128;5.434;2024-03-17T06:40:40;11.07;;;5.65;;
71715;SDS011;59568;52.128;5.434;2024-03-17T06:43:07;10.18;;;5.80;;
71715;SDS011;59568;52.128;5.434;2024-03-17T06:45:33;10.15;;;6.03;;
71715;SDS011;59568;52.128;5.434;2024-03-17T06:47:59;9.23;;;6.03;;
71715;SDS011;59568;52.128;5.434;2024-03-17T06:50:25;11.47;;;6.03;;
71715;SDS011;59568;52.128;5.434;2024-03-17T06:52:51;8.15;;;5.45;;
71715;SDS011;59568;52.128;5.434;2024-03-17T06:55:18;11.68;;;6.18;;
71715;SDS011;59568;52.128;5.434;2024-03-17T06:57:47;13.13;;;5.90;;
71715;SDS011;59568;52.128;5.434;2024-03-17T07:00:13;7.72;;;5.53;;
71715;SDS011;59568;52.128;5.434;2024-03-17T07:02:42;9.20;;;5.78;;
71715;SDS011;59568;52.128;5.434;2024-03-17T07:05:15;10.50;;;5.72;;
71715;SDS011;59568;52.128;5.434;2024-03-17T07:07:41;9.68;;;5.85;;
71715;SDS011;59568;52.128;5.434;2024-03-17T07:10:08;12.07;;;6.03;;
71715;SDS011;59568;52.128;5.434;2024-03-17T07:12:36;10.15;;;5.60;;
71715;SDS011;59568;52.128;5.434;2024-03-17T07:15:03;10.77;;;6.25;;
71715;SDS011;59568;52.128;5.434;2024-03-17T07:17:29;10.60;;;6.20;;
71715;SDS011;59568;52.128;5.434;2024-03-17T07:19:55;9.43;;;5.63;;
71715;SDS011;59568;52.128;5.434;2024-03-17T07:22:21;9.02;;;5.20;;
71715;SDS011;59568;52.128;5.434;2024-03-17T07:24:48;8.57;;;6.10;;
71715;SDS011;59568;52.128;5.434;2024-03-17T07:27:20;11.25;;;5.80;;
71715;SDS011;59568;52.128;5.434;2024-03-17T07:29:46;10.33;;;5.40;;
71715;SDS011;59568;52.128;5.434;2024-03-17T07:32:12;10.25;;;5.80;;
71715;SDS011;59568;52.128;5.434;2024-03-17T07:34:38;8.88;;;5.78;;
71715;SDS011;59568;52.128;5.434;2024-03-17T07:37:04;9.40;;;5.33;;
71715;SDS011;59568;52.128;5.434;2024-03-17T07:39:30;11.07;;;5.72;;
71715;SDS011;59568;52.128;5.434;2024-03-17T07:41:59;10.30;;;5.70;;
71715;SDS011;59568;52.128;5.434;2024-03-17T07:44:30;8.80;;;5.13;;
71715;SDS011;59568;52.128;5.434;2024-03-17T07:47:02;10.57;;;5.63;;
71715;SDS011;59568;52.128;5.434;2024-03-17T07:49:32;9.10;;;5.40;;
71715;SDS011;59568;52.128;5.434;2024-03-17T07:51:58;7.60;;;5.05;;
71715;SDS011;59568;52.128;5.434;2024-03-17T07:54:24;9.93;;;5.28;;
71715;SDS011;59568;52.128;5.434;2024-03-17T07:56:51;7.93;;;4.93;;
71715;SDS011;59568;52.128;5.434;2024-03-17T07:59:18;7.75;;;4.68;;
71715;SDS011;59568;52.128;5.434;2024-03-17T08:01:44;8.68;;;5.25;;
71715;SDS011;59568;52.128;5.434;2024-03-17T08:04:10;8.48;;;5.00;;
71715;SDS011;59568;52.128;5.434;2024-03-17T08:06:39;7.75;;;5.07;;
71715;SDS011;59568;52.128;5.434;2024-03-17T08:09:09;7.90;;;4.73;;
71715;SDS011;59568;52.128;5.434;2024-03-17T08:11:36;9.00;;;4.95;;
71715;SDS011;59568;52.128;5.434;2024-03-17T08:14:02;7.00;;;5.15;;
71715;SDS011;59568;52.128;5.434;2024-03-17T08:16:28;7.38;;;4.63;;
71715;SDS011;59568;52.128;5.434;2024-03-17T08:18:55;7.13;;;4.65;;
71715;SDS011;59568;52.128;5.434;2024-03-17T08:21:21;7.83;;;4.90;;
71715;SDS011;59568;52.128;5.434;2024-03-17T08:23:48;8.13;;;4.93;;
71715;SDS011;59568;52.128;5.434;2024-03-17T08:26:13;9.18;;;4.70;;
71715;SDS011;59568;52.128;5.434;2024-03-17T08:28:39;10.10;;;4.93;;
71715;SDS011;59568;52.128;5.434;2024-03-17T08:31:05;8.48;;;4.65;;
71715;SDS011;59568;52.128;5.434;2024-03-17T08:33:31;9.40;;;4.97;;
71715;SDS011;59568;52.128;5.434;2024-03-17T08:36:03;8.05;;;4.85;;
71715;SDS011;59568;52.128;5.434;2024-03-17T08:38:31;8.63;;;5.60;;
71715;SDS011;59568;52.128;5.434;2024-03-17T08:41:01;6.68;;;4.68;;
71715;SDS011;59568;52.128;5.434;2024-03-17T08:43:29;9.70;;;4.72;;
71715;SDS011;59568;52.128;5.434;2024-03-17T08:45:55;8.90;;;5.57;;
71715;SDS011;59568;52.128;5.434;2024-03-17T08:48:27;8.35;;;5.15;;
71715;SDS011;59568;52.128;5.434;2024-03-17T08:50:57;8.53;;;4.93;;
71715;SDS011;59568;52.128;5.434;2024-03-17T08:53:24;8.55;;;5.45;;
71715;SDS011;59568;52.128;5.434;2024-03-17T08:55:50;9.55;;;5.35;;
71715;SDS011;59568;52.128;5.434;2024-03-17T08:58:16;7.35;;;4.60;;
71715;SDS011;59568;52.128;5.434;2024-03-17T09:00:43;9.37;;;5.50;;
71715;SDS011;59568;52.128;5.434;2024-03-17T09:03:09;8.55;;;4.35;;
71715;SDS011;59568;52.128;5.434;2024-03-17T09:05:36;8.00;;;5.05;;
71715;SDS011;59568;52.128;5.434;2024-03-17T09:08:02;7.45;;;4.90;;
71715;SDS011;59568;52.128;5.434;2024-03-17T09:10:29;8.10;;;4.72;;
71715;SDS011;59568;52.128;5.434;2024-03-17T09:12:55;8.43;;;4.83;;
71715;SDS011;59568;52.128;5.434;2024-03-17T09:15:22;8.18;;;4.63;;
71715;SDS011;59568;52.128;5.434;2024-03-17T09:17:48;8.93;;;5.15;;
71715;SDS011;59568;52.128;5.434;2024-03-17T09:20:13;12.15;;;5.22;;
71715;SDS011;59568;52.128;5.434;2024-03-17T09:22:40;8.60;;;4.93;;
71715;SDS011;59568;52.128;5.434;2024-03-17T09:25:10;8.20;;;4.63;;
71715;SDS011;59568;52.128;5.434;2024-03-17T09:27:37;8.18;;;4.85;;
71715;SDS011;59568;52.128;5.434;2024-03-17T09:30:06;8.60;;;5.00;;
71715;SDS011;59568;52.128;5.434;2024-03-17T09:32:35;8.07;;;4.47;;
71715;SDS011;59568;52.128;5.434;2024-03-17T09:35:01;7.35;;;5.25;;
71715;SDS011;59568;52.128;5.434;2024-03-17T09:37:28;9.48;;;4.75;;
71715;SDS011;59568;52.128;5.434;2024-03-17T09:39:57;7.68;;;4.20;;
71715;SDS011;59568;52.128;5.434;2024-03-17T09:42:25;7.15;;;4.90;;
71715;SDS011;59568;52.128;5.434;2024-03-17T09:44:55;11.23;;;4.60;;
71715;SDS011;59568;52.128;5.434;2024-03-17T09:47:24;7.47;;;4.82;;
71715;SDS011;59568;52.128;5.434;2024-03-17T09:49:51;7.03;;;4.57;;
71715;SDS011;59568;52.128;5.434;2024-03-17T09:52:21;6.57;;;4.65;;
71715;SDS011;59568;52.128;5.434;2024-03-17T09:54:54;10.10;;;4.90;;
71715;SDS011;59568;52.128;5.434;2024-03-17T09:57:24;8.63;;;4.53;;
71715;SDS011;59568;52.128;5.434;2024-03-17T09:59:53;8.68;;;4.78;;
71715;SDS011;59568;52.128;5.434;2024-03-17T10:02:20;7.20;;;4.28;;
71715;SDS011;59568;52.128;5.434;2024-03-17T10:04:47;8.15;;;4.70;;
71715;SDS011;59568;52.128;5.434;2024-03-17T10:07:13;8.07;;;4.57;;
71715;SDS011;59568;52.128;5.434;2024-03-17T10:09:40;7.50;;;4.10;;
71715;SDS011;59568;52.128;5.434;2024-03-17T10:12:24;10.98;;;5.25;;
71715;SDS011;59568;52.128;5.434;2024-03-17T10:14:58;6.72;;;4.43;;
71715;SDS011;59568;52.128;5.434;2024-03-17T10:17:31;6.80;;;4.45;;
71715;SDS011;59568;52.128;5.434;2024-03-17T10:23:03;10.30;;;4.23;;
71715;SDS011;59568;52.128;5.434;2024-03-17T10:25:34;7.30;;;4.18;;
71715;SDS011;59568;52.128;5.434;2024-03-17T10:28:04;7.80;;;4.28;;
71715;SDS011;59568;52.128;5.434;2024-03-17T10:30:36;8.13;;;4.30;;
71715;SDS011;59568;52.128;5.434;2024-03-17T10:33:02;7.55;;;4.47;;
71715;SDS011;59568;52.128;5.434;2024-03-17T10:35:35;8.07;;;4.57;;
71715;SDS011;59568;52.128;5.434;2024-03-17T10:38:06;8.73;;;4.18;;
71715;SDS011;59568;52.128;5.434;2024-03-17T10:40:34;9.77;;;4.65;;
71715;SDS011;59568;52.128;5.434;2024-03-17T10:43:04;7.45;;;4.30;;
71715;SDS011;59568;52.128;5.434;2024-03-17T10:45:34;7.57;;;4.25;;
71715;SDS011;59568;52.128;5.434;2024-03-17T10:48:07;5.93;;;4.17;;
71715;SDS011;59568;52.128;5.434;2024-03-17T10:50:38;8.15;;;4.18;;
71715;SDS011;59568;52.128;5.434;2024-03-17T10:53:05;8.38;;;4.45;;
71715;SDS011;59568;52.128;5.434;2024-03-17T10:55:55;6.35;;;4.53;;
71715;SDS011;59568;52.128;5.434;2024-03-17T11:01:14;8.60;;;4.00;;
71715;SDS011;59568;52.128;5.434;2024-03-17T11:03:41;6.88;;;4.22;;
71715;SDS011;59568;52.128;5.434;2024-03-17T11:06:07;5.53;;;3.97;;
71715;SDS011;59568;52.128;5.434;2024-03-17T11:08:34;6.13;;;4.05;;
71715;SDS011;59568;52.128;5.434;2024-03-17T11:11:02;9.05;;;3.70;;
71715;SDS011;59568;52.128;5.434;2024-03-17T11:13:30;8.37;;;4.03;;
71715;SDS011;59568;52.128;5.434;2024-03-17T11:15:57;6.45;;;4.00;;
71715;SDS011;59568;52.128;5.434;2024-03-17T11:23:27;6.37;;;3.80;;
71715;SDS011;59568;52.128;5.434;2024-03-17T11:25:55;7.28;;;3.60;;
71715;SDS011;59568;52.128;5.434;2024-03-17T11:31:52;8.60;;;4.15;;
71715;SDS011;59568;52.128;5.434;2024-03-17T11:34:04;7.57;;;3.83;;
71715;SDS011;59568;52.128;5.434;2024-03-17T11:36:37;5.17;;;3.57;;
71715;SDS011;59568;52.128;5.434;2024-03-17T11:39:04;6.03;;;3.85;;
71715;SDS011;59568;52.128;5.434;2024-03-17T11:41:47;7.32;;;3.92;;
71715;SDS011;59568;52.128;5.434;2024-03-17T11:46:56;9.82;;;4.20;;
71715;SDS011;59568;52.128;5.434;2024-03-17T11:49:32;8.37;;;3.43;;
71715;SDS011;59568;52.128;5.434;2024-03-17T11:52:01;6.13;;;3.75;;
71715;SDS011;59568;52.128;5.434;2024-03-17T11:54:30;5.72;;;3.50;;
71715;SDS011;59568;52.128;5.434;2024-03-17T11:57:00;7.63;;;4.00;;
71715;SDS011;59568;52.128;5.434;2024-03-17T11:59:29;8.35;;;4.57;;
71715;SDS011;59568;52.128;5.434;2024-03-17T12:01:55;7.20;;;3.97;;
71715;SDS011;59568;52.128;5.434;2024-03-17T12:04:22;7.30;;;4.20;;
71715;SDS011;59568;52.128;5.434;2024-03-17T12:09:21;7.00;;;3.92;;
71715;SDS011;59568;52.128;5.434;2024-03-17T12:14:24;6.50;;;3.87;;
71715;SDS011;59568;52.128;5.434;2024-03-17T12:16:54;6.70;;;4.10;;
71715;SDS011;59568;52.128;5.434;2024-03-17T12:19:22;5.82;;;3.95;;
71715;SDS011;59568;52.128;5.434;2024-03-17T12:21:52;9.88;;;4.22;;
71715;SDS011;59568;52.128;5.434;2024-03-17T12:24:20;6.22;;;4.03;;
71715;SDS011;59568;52.128;5.434;2024-03-17T12:26:48;6.87;;;3.90;;
71715;SDS011;59568;52.128;5.434;2024-03-17T12:31:59;9.32;;;3.80;;
71715;SDS011;59568;52.128;5.434;2024-03-17T12:34:29;9.45;;;4.10;;
71715;SDS011;59568;52.128;5.434;2024-03-17T12:36:59;6.35;;;3.90;;
71715;SDS011;59568;52.128;5.434;2024-03-17T12:42:09;9.82;;;4.15;;
71715;SDS011;59568;52.128;5.434;2024-03-17T12:44:38;6.70;;;3.72;;
71715;SDS011;59568;52.128;5.434;2024-03-17T12:47:16;6.93;;;3.83;;
71715;SDS011;59568;52.128;5.434;2024-03-17T12:49:47;10.23;;;4.20;;
71715;SDS011;59568;52.128;5.434;2024-03-17T12:52:21;7.93;;;4.00;;
71715;SDS011;59568;52.128;5.434;2024-03-17T12:55:00;5.72;;;3.47;;
71715;SDS011;59568;52.128;5.434;2024-03-17T12:57:51;8.30;;;4.65;;
71715;SDS011;59568;52.128;5.434;2024-03-17T13:00:37;9.32;;;3.70;;
71715;SDS011;59568;52.128;5.434;2024-03-17T13:03:04;7.63;;;4.55;;
71715;SDS011;59568;52.128;5.434;2024-03-17T13:05:34;5.90;;;3.87;;
71715;SDS011;59568;52.128;5.434;2024-03-17T13:08:00;6.65;;;4.45;;
71715;SDS011;59568;52.128;5.434;2024-03-17T13:10:27;6.97;;;3.95;;
71715;SDS011;59568;52.128;5.434;2024-03-17T13:15:30;6.53;;;4.20;;
71715;SDS011;59568;52.128;5.434;2024-03-17T13:17:57;7.50;;;4.30;;
71715;SDS011;59568;52.128;5.434;2024-03-17T13:20:24;6.15;;;3.85;;
71715;SDS011;59568;52.128;5.434;2024-03-17T13:22:50;9.50;;;4.43;;
71715;SDS011;59568;52.128;5.434;2024-03-17T13:25:17;9.18;;;3.90;;
71715;SDS011;59568;52.128;5.434;2024-03-17T13:27:47;8.47;;;4.00;;
71715;SDS011;59568;52.128;5.434;2024-03-17T13:30:17;5.70;;;4.25;;
71715;SDS011;59568;52.128;5.434;2024-03-17T13:32:44;7.88;;;4.45;;
71715;SDS011;59568;52.128;5.434;2024-03-17T13:35:15;6.82;;;4.07;;
71715;SDS011;59568;52.128;5.434;2024-03-17T13:37:45;8.05;;;4.05;;
71715;SDS011;59568;52.128;5.434;2024-03-17T13:40:16;7.43;;;4.23;;
71715;SDS011;59568;52.128;5.434;2024-03-17T13:42:47;7.47;;;4.22;;
71715;SDS011;59568;52.128;5.434;2024-03-17T13:45:16;7.97;;;4.05;;
71715;SDS011;59568;52.128;5.434;2024-03-17T13:47:45;7.70;;;4.00;;
71715;SDS011;59568;52.128;5.434;2024-03-17T13:50:16;8.10;;;4.25;;
71715;SDS011;59568;52.128;5.434;2024-03-17T13:52:42;7.47;;;4.23;;
71715;SDS011;59568;52.128;5.434;2024-03-17T13:55:16;6.78;;;4.28;;
71715;SDS011;59568;52.128;5.434;2024-03-17T13:57:47;7.40;;;4.15;;
71715;SDS011;59568;52.128;5.434;2024-03-17T14:00:16;7.65;;;4.80;;
71715;SDS011;59568;52.128;5.434;2024-03-17T14:02:45;9.30;;;4.50;;
71715;SDS011;59568;52.128;5.434;2024-03-17T14:05:12;6.75;;;4.07;;
71715;SDS011;59568;52.128;5.434;2024-03-17T14:07:39;7.68;;;4.80;;
71715;SDS011;59568;52.128;5.434;2024-03-17T14:10:10;8.82;;;4.22;;
71715;SDS011;59568;52.128;5.434;2024-03-17T14:12:38;6.43;;;3.92;;
71715;SDS011;59568;52.128;5.434;2024-03-17T14:15:06;9.40;;;6.00;;
71715;SDS011;59568;52.128;5.434;2024-03-17T14:20:05;8.75;;;4.72;;
71715;SDS011;59568;52.128;5.434;2024-03-17T14:22:38;10.50;;;5.75;;
71715;SDS011;59568;52.128;5.434;2024-03-17T14:25:05;6.63;;;4.05;;
71715;SDS011;59568;52.128;5.434;2024-03-17T14:27:32;6.77;;;4.30;;
71715;SDS011;59568;52.128;5.434;2024-03-17T14:29:59;7.68;;;4.47;;
71715;SDS011;59568;52.128;5.434;2024-03-17T14:32:26;8.15;;;4.68;;
71715;SDS011;59568;52.128;5.434;2024-03-17T14:34:53;9.85;;;4.50;;
71715;SDS011;59568;52.128;5.434;2024-03-17T14:37:19;6.45;;;3.65;;
71715;SDS011;59568;52.128;5.434;2024-03-17T14:39:45;9.20;;;4.73;;
71715;SDS011;59568;52.128;5.434;2024-03-17T14:42:11;10.40;;;5.57;;
71715;SDS011;59568;52.128;5.434;2024-03-17T14:44:37;7.68;;;4.43;;
71715;SDS011;59568;52.128;5.434;2024-03-17T14:47:03;6.55;;;4.35;;
71715;SDS011;59568;52.128;5.434;2024-03-17T14:49:30;8.85;;;4.28;;
71715;SDS011;59568;52.128;5.434;2024-03-17T14:51:56;9.80;;;4.77;;
71715;SDS011;59568;52.128;5.434;2024-03-17T14:54:22;11.32;;;5.47;;
71715;SDS011;59568;52.128;5.434;2024-03-17T14:56:49;7.53;;;4.68;;
71715;SDS011;59568;52.128;5.434;2024-03-17T14:59:14;7.30;;;4.20;;
71715;SDS011;59568;52.128;5.434;2024-03-17T15:01:47;7.93;;;3.77;;
71715;SDS011;59568;52.128;5.434;2024-03-17T15:04:13;9.40;;;4.40;;
71715;SDS011;59568;52.128;5.434;2024-03-17T15:06:42;7.47;;;4.05;;
71715;SDS011;59568;52.128;5.434;2024-03-17T15:09:11;7.97;;;3.80;;
71715;SDS011;59568;52.128;5.434;2024-03-17T15:11:44;7.88;;;3.95;;
71715;SDS011;59568;52.128;5.434;2024-03-17T15:14:12;6.77;;;4.00;;
71715;SDS011;59568;52.128;5.434;2024-03-17T15:16:38;6.75;;;3.53;;
71715;SDS011;59568;52.128;5.434;2024-03-17T15:19:05;4.97;;;3.45;;
71715;SDS011;59568;52.128;5.434;2024-03-17T15:21:32;8.00;;;4.30;;